Time;durP1;ratioP1;P1;durP2;ratioP2;P2;SDS_P1;SDS_P2;PMS_P1;PMS_P2;Temp;Humidity;BMP_temperature;BMP_pressure;BME280_temperature;BME280_humidity;BME280_pressure;Samples;Min_cycle;Max_cycle;Signal;HPM_P1;HPM_P2
2021/12/12 00:01:22;;;;;;;180.70;86.10;;;;;;;-1.10;76.67;99380.92;2222114;80;20900;-80
2021/12/12 00:04:31;;;;;;;167.50;82.57;;;;;;;-1.14;76.82;99388.30;2221948;80;20956;-80
2021/12/12 00:07:25;;;;;;;171.63;86.70;;;;;;;-1.18;76.97;99388.49;2220453;80;20991;-80
2021/12/12 00:10:25;;;;;;;164.97;79.33;;;;;;;-1.19;77.17;99383.27;2221972;80;20916;-80
2021/12/12 00:13:26;;;;;;;165.87;78.50;;;;;;;-1.20;77.17;99384.05;2222033;80;20948;-80
2021/12/12 00:16:26;;;;;;;170.27;79.20;;;;;;;-1.21;77.22;99377.16;2221925;80;20920;-79
2021/12/12 00:19:27;;;;;;;159.37;77.43;;;;;;;-1.25;77.24;99380.30;2221448;80;21359;-80
2021/12/12 00:22:27;;;;;;;153.90;75.63;;;;;;;-1.26;77.28;99383.25;2220739;80;20980;-80
2021/12/12 00:25:28;;;;;;;162.27;79.03;;;;;;;-1.26;77.21;99384.93;2221665;80;20948;-80
2021/12/12 00:28:28;;;;;;;165.50;78.63;;;;;;;-1.25;77.12;99393.11;2221844;80;21008;-79
2021/12/12 00:31:29;;;;;;;159.27;79.43;;;;;;;-1.26;77.18;99387.48;2221757;80;21004;-79
2021/12/12 00:34:29;;;;;;;175.77;87.10;;;;;;;-1.28;77.07;99382.27;2222090;80;21407;-79
2021/12/12 00:37:30;;;;;;;177.97;84.67;;;;;;;-1.34;77.12;99389.15;2222017;80;20924;-79
2021/12/12 00:40:31;;;;;;;172.17;87.33;;;;;;;-1.40;77.07;99400.27;2222098;80;20964;-80
2021/12/12 00:43:31;;;;;;;165.67;82.93;;;;;;;-1.40;77.07;99400.27;2222259;80;20981;-80
2021/12/12 00:46:32;;;;;;;164.63;83.30;;;;;;;-1.41;77.26;99401.05;2222269;80;20924;-80
2021/12/12 00:49:32;;;;;;;165.23;81.77;;;;;;;-1.45;77.30;99414.82;2222051;80;20968;-80
2021/12/12 00:52:33;;;;;;;166.73;82.57;;;;;;;-1.46;77.44;99409.20;2222137;80;20932;-80
2021/12/12 00:55:37;;;;;;;171.20;82.87;;;;;;;-1.48;77.26;99415.50;2222030;80;20987;-80
2021/12/12 00:58:36;;;;;;;173.70;85.13;;;;;;;-1.44;77.50;99430.28;2221207;80;21031;-80
2021/12/12 01:01:36;;;;;;;180.53;86.63;;;;;;;-1.51;77.09;99427.20;2222040;80;20972;-80
2021/12/12 01:04:37;;;;;;;182.13;87.43;;;;;;;-1.52;77.42;99430.55;2221973;80;20985;-82
2021/12/12 01:07:37;;;;;;;165.17;85.27;;;;;;;-1.48;77.44;99437.27;2221384;80;20944;-80
2021/12/12 01:10:38;;;;;;;172.33;83.83;;;;;;;-1.46;77.58;99438.26;2222206;80;20999;-81
2021/12/12 01:13:38;;;;;;;165.70;82.80;;;;;;;-1.42;77.46;99433.84;2222226;80;20928;-80
2021/12/12 01:16:39;;;;;;;171.93;84.70;;;;;;;-1.37;77.21;99430.31;2221938;80;21411;-81
2021/12/12 01:19:39;;;;;;;170.37;85.53;;;;;;;-1.35;77.32;99429.63;2220844;80;20960;-80
2021/12/12 01:22:40;;;;;;;165.43;83.33;;;;;;;-1.33;77.46;99437.02;2221818;80;20948;-80
2021/12/12 01:25:44;;;;;;;156.90;79.20;;;;;;;-1.27;77.55;99438.22;2221063;80;21343;-82
2021/12/12 01:28:43;;;;;;;157.83;77.57;;;;;;;-1.26;77.09;99440.00;2221132;80;21382;-80
2021/12/12 01:31:47;;;;;;;169.97;81.13;;;;;;;-1.30;76.75;99432.50;2221881;80;20948;-80
2021/12/12 01:34:51;;;;;;;152.07;78.62;;;;;;;-1.34;76.96;99430.52;2220212;80;21312;-80
2021/12/12 01:38:51;;;;;;;165.87;81.17;;;;;;;-1.36;77.03;99442.33;2219923;80;21485;-80
2021/12/12 01:40:53;;;;;;;180.80;88.40;;;;;;;-1.39;76.82;99439.56;2216869;80;20980;-80
2021/12/12 01:43:56;;;;;;;162.63;81.10;;;;;;;-1.39;77.06;99443.41;2221933;80;20925;-80
2021/12/12 01:46:57;;;;;;;158.27;79.63;;;;;;;-1.45;76.67;99441.70;2222136;80;20976;-81
2021/12/12 01:49:57;;;;;;;159.77;77.27;;;;;;;-1.53;76.60;99438.63;2222047;80;21280;-81
2021/12/12 01:52:58;;;;;;;165.63;82.87;;;;;;;-1.59;76.25;99447.17;2222089;80;20967;-80
2021/12/12 01:55:59;;;;;;;176.07;87.63;;;;;;;-1.75;76.08;99445.58;2222016;80;21003;-80
2021/12/12 01:59:01;;;;;;;198.90;94.13;;;;;;;-1.78;77.26;99451.77;2211367;80;21008;-80
2021/12/12 02:02:01;;;;;;;170.63;84.17;;;;;;;-1.72;77.90;99454.78;2211338;81;21028;-80
2021/12/12 02:05:02;;;;;;;171.17;83.40;;;;;;;-1.67;77.33;99450.88;2211441;81;20944;-81
2021/12/12 02:08:02;;;;;;;154.63;78.00;;;;;;;-1.71;77.34;99451.05;2211374;81;21031;-80
2021/12/12 02:11:03;;;;;;;157.17;78.90;;;;;;;-1.72;76.83;99458.23;2211417;81;21328;-80
2021/12/12 02:14:09;;;;;;;169.90;80.27;;;;;;;-1.83;76.23;99462.96;2211417;81;20999;-80
2021/12/12 02:17:07;;;;;;;159.83;77.43;;;;;;;-1.92;76.18;99459.37;2211020;80;21048;-81
2021/12/12 02:20:15;;;;;;;158.90;77.00;;;;;;;-1.96;76.50;99462.50;2211453;81;21019;-80
2021/12/12 02:23:27;;;;;;;150.40;76.00;;;;;;;-1.98;76.32;99459.33;2210221;80;21004;-80
2021/12/12 02:36:17;;;;;;;150.77;71.67;;;;;;;-2.29;76.30;99462.66;2211477;81;21134;-80
2021/12/12 02:39:17;;;;;;;159.50;74.83;;;;;;;-2.37;76.21;99462.50;2211290;81;20991;-80
2021/12/12 02:42:18;;;;;;;139.03;67.67;;;;;;;-2.49;75.57;99464.18;2211551;81;20968;-80
2021/12/12 02:45:20;;;;;;;146.60;64.80;;;;;;;-2.68;75.21;99473.03;2211743;81;20945;-80
2021/12/12 02:48:21;;;;;;;131.77;64.97;;;;;;;-2.82;74.91;99487.73;2211644;81;20932;-80
2021/12/12 02:51:21;;;;;;;135.37;66.67;;;;;;;-2.84;75.66;99489.67;2211660;81;20967;-80
2021/12/12 02:54:22;;;;;;;142.30;69.17;;;;;;;-2.78;75.69;99494.85;2211740;81;20999;-80
2021/12/12 02:57:23;;;;;;;137.47;68.20;;;;;;;-2.69;76.01;99505.75;2211451;81;21421;-80
2021/12/12 03:00:23;;;;;;;134.03;65.73;;;;;;;-2.59;76.06;99504.41;2211464;81;21008;-80
2021/12/12 03:03:24;;;;;;;135.47;66.63;;;;;;;-2.48;76.24;99509.41;2212039;81;20964;-80
2021/12/12 03:06:24;;;;;;;144.77;70.77;;;;;;;-2.41;76.27;99509.09;2211899;81;20975;-80
2021/12/12 03:09:25;;;;;;;133.43;68.53;;;;;;;-2.35;76.17;99501.47;2212040;81;20932;-81
2021/12/12 03:12:30;;;;;;;131.00;64.97;;;;;;;-2.31;76.28;99504.75;2212087;81;21344;-81
2021/12/12 03:15:28;;;;;;;135.77;69.00;;;;;;;-2.23;76.22;99503.13;2211335;80;21000;-80
2021/12/12 03:18:28;;;;;;;140.40;71.07;;;;;;;-2.17;75.89;99503.19;2211959;81;21323;-80
2021/12/12 03:21:30;;;;;;;154.63;73.43;;;;;;;-2.09;76.14;99499.89;2211897;81;20965;-80
2021/12/12 03:24:31;;;;;;;150.47;71.77;;;;;;;-1.99;76.22;99499.77;2211697;81;21012;-80
2021/12/12 03:27:32;;;;;;;136.60;69.47;;;;;;;-1.91;76.21;99497.36;2211602;81;21019;-80
2021/12/12 03:30:32;;;;;;;145.40;71.37;;;;;;;-1.87;75.96;99498.47;2212522;81;20928;-80
2021/12/12 03:33:33;;;;;;;149.37;73.87;;;;;;;-1.80;75.84;99509.24;2212475;81;20901;-80
2021/12/12 03:36:33;;;;;;;162.00;80.10;;;;;;;-1.75;75.83;99510.84;2212076;81;21303;-80
2021/12/12 03:39:34;;;;;;;161.20;80.43;;;;;;;-1.70;75.78;99511.70;2212250;81;21535;-80
2021/12/12 03:42:34;;;;;;;150.20;78.70;;;;;;;-1.65;75.81;99510.74;2212147;81;20928;-80
2021/12/12 03:45:35;;;;;;;154.27;75.53;;;;;;;-1.62;75.72;99502.00;2211781;81;21031;-80
2021/12/12 03:48:35;;;;;;;145.00;73.20;;;;;;;-1.56;75.85;99514.33;2211970;81;20905;-80
2021/12/12 03:51:36;;;;;;;141.50;69.23;;;;;;;-1.52;76.09;99514.66;2211784;81;20968;-80
2021/12/12 03:54:36;;;;;;;134.33;66.47;;;;;;;-1.47;76.23;99516.25;2211817;81;20952;-82
2021/12/12 03:57:37;;;;;;;140.60;66.70;;;;;;;-1.45;75.85;99519.81;2211490;80;21031;-81
2021/12/12 04:00:37;;;;;;;154.17;75.27;;;;;;;-1.45;75.99;99513.02;2212223;81;21367;-81
2021/12/12 04:03:38;;;;;;;139.73;71.30;;;;;;;-1.45;75.98;99509.17;2212500;81;20956;-81
2021/12/12 04:06:38;;;;;;;144.50;69.90;;;;;;;-1.42;76.29;99514.51;2211999;81;20940;-81
2021/12/12 04:09:39;;;;;;;146.80;71.87;;;;;;;-1.37;76.24;99518.66;2211715;81;20928;-81
2021/12/12 04:12:39;;;;;;;132.77;69.67;;;;;;;-1.34;76.35;99519.77;2211975;81;20930;-81
2021/12/12 04:15:40;;;;;;;145.27;72.83;;;;;;;-1.34;76.19;99519.77;2211845;81;20941;-80
2021/12/12 04:18:40;;;;;;;137.37;67.77;;;;;;;-1.33;76.35;99524.10;2211640;81;20979;-80
2021/12/12 04:21:41;;;;;;;142.80;70.93;;;;;;;-1.29;76.08;99535.05;2211555;81;20956;-81
2021/12/12 04:24:41;;;;;;;140.70;71.90;;;;;;;-1.30;75.85;99530.72;2211464;81;21347;-81
2021/12/12 04:27:42;;;;;;;137.93;69.53;;;;;;;-1.27;75.87;99536.44;2211756;81;20989;-80
2021/12/12 04:30:42;;;;;;;140.03;68.87;;;;;;;-1.23;75.96;99533.30;2211987;81;20956;-80
2021/12/12 04:33:43;;;;;;;143.70;70.23;;;;;;;-1.22;75.67;99544.44;2211172;81;21868;-81
2021/12/12 04:36:43;;;;;;;139.07;67.80;;;;;;;-1.21;75.60;99551.34;2211087;81;20972;-81
2021/12/12 04:39:47;;;;;;;138.40;65.80;;;;;;;-1.18;75.70;99558.85;2211004;81;20956;-80
2021/12/12 04:42:46;;;;;;;134.33;66.60;;;;;;;-1.17;75.89;99562.30;2211585;81;21028;-80
2021/12/12 04:45:51;;;;;;;132.03;68.50;;;;;;;-1.15;75.85;99565.86;2211378;81;21262;-80
2021/12/12 04:52:08;;;;;;;139.33;69.43;;;;;;;-1.05;75.72;99584.53;2212160;81;21040;-80
2021/12/12 04:55:09;;;;;;;135.67;70.87;;;;;;;-1.02;75.74;99583.84;2212435;81;20932;-80
2021/12/12 04:58:09;;;;;;;131.50;66.20;;;;;;;-0.98;75.91;99591.85;2211793;79;21011;-80
2021/12/12 05:01:10;;;;;;;138.87;68.47;;;;;;;-0.92;75.83;99595.62;2211914;81;21003;-79
2021/12/12 05:04:10;;;;;;;135.07;66.60;;;;;;;-0.89;75.74;99596.72;2211930;81;20934;-80
2021/12/12 05:07:11;;;;;;;125.40;66.53;;;;;;;-0.85;75.64;99601.70;2211699;81;20953;-79
2021/12/12 05:10:11;;;;;;;139.63;70.23;;;;;;;-0.84;75.69;99599.63;2211043;81;20921;-80
2021/12/12 05:13:12;;;;;;;131.13;68.50;;;;;;;-0.80;75.85;99602.50;2210774;81;21312;-80
2021/12/12 05:16:13;;;;;;;138.10;69.27;;;;;;;-0.76;75.86;99601.92;2210980;81;20964;-81
2021/12/12 05:19:13;;;;;;;129.00;65.03;;;;;;;-0.76;75.85;99607.05;2210945;81;20933;-80
2021/12/12 05:22:14;;;;;;;141.53;70.03;;;;;;;-0.72;75.94;99602.63;2210388;81;20980;-79
2021/12/12 05:25:14;;;;;;;125.43;63.30;;;;;;;-0.67;75.90;99609.35;2212352;81;20988;-80
2021/12/12 05:28:15;;;;;;;126.30;65.03;;;;;;;-0.65;75.82;99615.08;2212147;81;21047;-80
2021/12/12 05:31:15;;;;;;;145.77;75.80;;;;;;;-0.66;75.76;99611.13;2211748;81;20987;-80
2021/12/12 05:34:16;;;;;;;139.17;71.93;;;;;;;-0.66;75.68;99604.33;2211813;81;20933;-79
2021/12/12 05:37:16;;;;;;;139.10;68.87;;;;;;;-0.67;75.77;99610.24;2211533;81;21293;-80
2021/12/12 05:40:17;;;;;;;136.50;66.67;;;;;;;-0.63;75.85;99625.84;2212516;81;20941;-80
2021/12/12 05:43:18;;;;;;;131.37;67.83;;;;;;;-0.65;75.92;99630.47;2212296;81;20897;-80
2021/12/12 05:46:19;;;;;;;142.40;71.73;;;;;;;-0.62;75.89;99619.92;2211555;81;20940;-80
2021/12/12 05:49:20;;;;;;;133.20;67.87;;;;;;;-0.59;76.02;99615.89;2212236;81;21284;-80
2021/12/12 05:52:21;;;;;;;131.97;66.43;;;;;;;-0.52;76.05;99614.63;2212158;81;20984;-80
2021/12/12 05:55:22;;;;;;;126.23;67.83;;;;;;;-0.48;75.96;99620.45;2211839;81;21012;-80
2021/12/12 05:58:22;;;;;;;130.17;66.70;;;;;;;-0.48;75.99;99611.09;2210277;80;20988;-80
2021/12/12 06:01:23;;;;;;;128.17;67.43;;;;;;;-0.41;76.08;99618.80;2209614;81;20999;-81
2021/12/12 06:04:23;;;;;;;137.53;71.37;;;;;;;-0.41;76.02;99614.95;2209157;81;20964;-80
2021/12/12 06:07:24;;;;;;;148.97;78.43;;;;;;;-0.40;76.39;99615.45;2210624;81;20952;-80
2021/12/12 06:10:24;;;;;;;139.13;70.67;;;;;;;-0.44;76.36;99613.07;2211093;81;20976;-80
2021/12/12 06:13:25;;;;;;;159.37;79.90;;;;;;;-0.37;76.53;99623.34;2210886;81;21016;-80
2021/12/12 06:16:25;;;;;;;169.27;84.93;;;;;;;-0.34;76.55;99621.88;2210853;81;20972;-80
2021/12/12 06:19:26;;;;;;;187.80;89.47;;;;;;;-0.35;76.73;99617.92;2211009;81;20933;-80
2021/12/12 06:22:26;;;;;;;174.77;86.97;;;;;;;-0.47;76.77;99624.41;2211211;81;20936;-80
2021/12/12 06:25:27;;;;;;;154.00;77.37;;;;;;;-0.49;77.09;99631.50;2211093;81;21322;-79
2021/12/12 06:28:28;;;;;;;154.93;75.87;;;;;;;-0.60;77.29;99641.43;2210743;81;21016;-79
2021/12/12 06:31:28;;;;;;;137.23;68.73;;;;;;;-0.68;77.46;99635.78;2211227;81;20929;-79
2021/12/12 06:34:29;;;;;;;147.20;72.83;;;;;;;-0.72;77.95;99629.95;2211078;81;20988;-79
2021/12/12 06:37:29;;;;;;;139.13;66.27;;;;;;;-0.80;78.22;99640.06;2211258;81;20919;-79
2021/12/12 06:40:30;;;;;;;127.17;63.23;;;;;;;-0.86;78.53;99638.36;2211128;81;21295;-79
2021/12/12 06:43:30;;;;;;;140.07;68.30;;;;;;;-0.89;78.59;99639.40;2211239;81;20969;-79
2021/12/12 06:46:31;;;;;;;129.40;65.63;;;;;;;-0.96;78.84;99638.98;2211057;81;20972;-78
2021/12/12 06:49:31;;;;;;;129.33;65.23;;;;;;;-0.98;78.98;99646.06;2210794;81;20972;-79
2021/12/12 06:52:32;;;;;;;125.97;60.10;;;;;;;-1.02;79.14;99642.39;2211144;81;21359;-79
2021/12/12 06:55:32;;;;;;;115.97;56.77;;;;;;;-1.01;79.24;99645.84;2211217;81;20941;-79
2021/12/12 06:58:33;;;;;;;121.53;58.63;;;;;;;-1.00;79.36;99645.95;2210875;81;21007;-79
2021/12/12 07:01:34;;;;;;;121.50;56.80;;;;;;;-1.00;79.26;99645.95;2211238;81;20937;-78
2021/12/12 07:04:34;;;;;;;130.13;59.70;;;;;;;-0.99;79.35;99649.41;2210890;81;20987;-79
2021/12/12 07:07:35;;;;;;;130.90;57.17;;;;;;;-0.93;79.48;99643.42;2211216;81;20995;-79
2021/12/12 07:10:35;;;;;;;106.40;48.97;;;;;;;-0.92;79.52;99654.17;2210988;81;20944;-79
2021/12/12 07:13:36;;;;;;;108.03;51.43;;;;;;;-0.92;79.40;99650.33;2211114;81;20894;-79
2021/12/12 07:16:36;;;;;;;99.03;48.67;;;;;;;-0.97;79.36;99645.28;2210961;81;21023;-79
2021/12/12 07:19:37;;;;;;;113.53;52.33;;;;;;;-1.01;79.54;99644.17;2211063;81;20984;-79
2021/12/12 07:22:37;;;;;;;101.77;46.83;;;;;;;-1.05;79.55;99654.11;2211221;81;21359;-79
2021/12/12 07:25:38;;;;;;;107.03;51.37;;;;;;;-1.05;79.64;99655.00;2211270;81;20954;-79
2021/12/12 07:28:38;;;;;;;109.83;52.93;;;;;;;-1.10;79.70;99658.02;2210903;81;20976;-79
2021/12/12 07:31:39;;;;;;;126.43;55.33;;;;;;;-1.12;79.77;99660.47;2211121;81;20928;-79
2021/12/12 07:34:39;;;;;;;117.20;55.63;;;;;;;-1.10;79.90;99660.58;2211048;81;21411;-79
2021/12/12 07:37:40;;;;;;;125.03;54.73;;;;;;;-1.11;79.99;99666.09;2211628;81;20972;-80
2021/12/12 07:40:40;;;;;;;116.17;53.90;;;;;;;-1.08;80.00;99676.95;2211295;81;20976;-79
2021/12/12 07:43:41;;;;;;;109.90;54.70;;;;;;;-1.09;79.97;99679.02;2211788;81;20893;-80
2021/12/12 07:46:41;;;;;;;105.20;50.20;;;;;;;-1.14;80.04;99676.13;2211836;81;20972;-79
2021/12/12 07:49:42;;;;;;;110.50;49.30;;;;;;;-1.13;80.26;99682.14;2211282;81;20905;-80
2021/12/12 07:52:43;;;;;;;110.10;48.93;;;;;;;-1.18;80.18;99691.17;2210997;81;20948;-79
2021/12/12 07:55:43;;;;;;;106.30;47.10;;;;;;;-1.23;80.30;99704.05;2211204;81;21041;-80
2021/12/12 07:58:44;;;;;;;95.10;45.40;;;;;;;-1.26;80.36;99702.55;2211027;81;21455;-80
2021/12/12 08:01:44;;;;;;;102.97;50.93;;;;;;;-1.21;80.43;99710.17;2211236;81;20956;-79
2021/12/12 08:04:45;;;;;;;93.10;43.33;;;;;;;-1.18;80.39;99718.08;2210675;81;20917;-80
2021/12/12 08:07:45;;;;;;;91.27;42.17;;;;;;;-1.20;80.45;99725.66;2210606;81;20995;-80
2021/12/12 08:10:46;;;;;;;113.60;51.90;;;;;;;-1.24;80.48;99719.80;2211060;81;20901;-79
2021/12/12 08:13:46;;;;;;;109.57;49.27;;;;;;;-1.27;80.74;99721.26;2211083;81;21323;-79
2021/12/12 08:16:47;;;;;;;119.20;51.87;;;;;;;-1.25;80.61;99724.43;2211015;81;20913;-78
2021/12/12 08:19:47;;;;;;;122.67;56.00;;;;;;;-1.14;80.70;99733.77;2211144;81;20937;-79
2021/12/12 08:22:48;;;;;;;133.03;53.83;;;;;;;-1.07;80.66;99724.46;2211027;81;20929;-79
2021/12/12 08:25:48;;;;;;;107.17;48.63;;;;;;;-1.09;80.69;99731.55;2211062;81;21355;-79
2021/12/12 08:28:49;;;;;;;103.37;45.83;;;;;;;-1.13;80.53;99724.03;2210895;81;20972;-78
2021/12/12 08:31:50;;;;;;;89.37;41.33;;;;;;;-1.25;80.44;99722.26;2211126;81;20925;-79
2021/12/12 08:34:50;;;;;;;122.07;48.40;;;;;;;-1.37;80.54;99720.59;2211325;81;21048;-79
2021/12/12 08:37:51;;;;;;;110.73;45.17;;;;;;;-1.43;80.92;99732.96;2210520;81;21386;-79
2021/12/12 08:40:51;;;;;;;112.43;48.33;;;;;;;-1.48;81.01;99726.61;2211491;81;20913;-79
2021/12/12 08:43:52;;;;;;;104.17;46.93;;;;;;;-1.46;81.24;99730.17;2211472;81;20933;-79
2021/12/12 08:46:52;;;;;;;133.13;49.83;;;;;;;-1.43;81.28;99725.28;2211534;81;20893;-80
2021/12/12 08:49:53;;;;;;;125.83;51.50;;;;;;;-1.37;81.50;99728.28;2211461;81;20925;-79
2021/12/12 08:52:53;;;;;;;115.63;52.00;;;;;;;-1.34;81.45;99718.26;2210834;81;21367;-79
2021/12/12 08:55:54;;;;;;;110.43;47.87;;;;;;;-1.29;81.41;99715.64;2211216;81;20980;-79
2021/12/12 08:58:55;;;;;;;113.10;47.40;;;;;;;-1.20;81.23;99718.36;2210864;81;21476;-79
2021/12/12 09:01:55;;;;;;;122.17;47.20;;;;;;;-1.15;80.85;99733.27;2211224;81;20945;-80
2021/12/12 09:04:56;;;;;;;114.30;48.03;;;;;;;-1.12;80.81;99727.09;2210571;81;20992;-80
2021/12/12 09:07:57;;;;;;;92.60;41.20;;;;;;;-1.20;80.79;99723.09;2209468;81;21242;-80
2021/12/12 09:10:57;;;;;;;117.00;47.53;;;;;;;-1.19;81.00;99717.58;2209344;81;21019;-79
2021/12/12 09:13:58;;;;;;;97.07;46.80;;;;;;;-1.22;80.98;99719.53;2209405;81;20948;-80
2021/12/12 09:16:58;;;;;;;122.47;50.87;;;;;;;-1.14;81.02;99716.23;2209226;81;21367;-80
2021/12/12 09:19:59;;;;;;;104.23;46.70;;;;;;;-1.08;80.97;99715.38;2210028;81;20995;-79
2021/12/12 09:23:01;;;;;;;121.33;48.67;;;;;;;-1.02;80.67;99723.51;2211284;81;20909;-80
2021/12/12 09:26:01;;;;;;;115.37;49.27;;;;;;;-0.95;80.72;99728.28;2210889;81;20940;-79
2021/12/12 09:29:02;;;;;;;147.07;51.70;;;;;;;-0.89;80.45;99721.03;2211307;81;20984;-79
2021/12/12 09:32:02;;;;;;;126.20;47.00;;;;;;;-0.84;80.40;99718.82;2210896;81;20961;-80
2021/12/12 09:35:03;;;;;;;123.47;47.70;;;;;;;-0.94;80.21;99719.81;2211139;81;21340;-79
2021/12/12 09:38:03;;;;;;;134.20;52.60;;;;;;;-1.04;80.40;99718.66;2211276;81;20964;-79
2021/12/12 09:41:04;;;;;;;116.20;49.83;;;;;;;-1.00;80.75;99720.66;2210983;81;20897;-79
2021/12/12 09:44:05;;;;;;;115.07;47.60;;;;;;;-0.96;80.61;99722.66;2210813;81;20940;-79
2021/12/12 09:47:25;;;;;;;129.23;52.97;;;;;;;-0.94;80.60;99719.81;2211074;81;20963;-79
2021/12/12 09:53:33;;;;;;;116.80;46.80;;;;;;;-0.96;80.38;99722.27;2211234;81;21076;-78
2021/12/12 09:56:33;;;;;;;113.77;46.83;;;;;;;-1.02;80.32;99720.94;2211044;81;20972;-79
2021/12/12 09:59:39;;;;;;;108.57;43.63;;;;;;;-1.00;80.44;99707.84;2210969;81;21439;-78
2021/12/12 10:02:37;;;;;;;105.67;44.87;;;;;;;-1.00;80.30;99708.73;2210903;80;21347;-78
2021/12/12 10:05:37;;;;;;;106.57;45.30;;;;;;;-0.99;80.27;99708.34;2211192;81;20933;-78
2021/12/12 10:08:38;;;;;;;115.40;48.50;;;;;;;-0.99;80.28;99703.22;2211189;81;21359;-79
2021/12/12 10:11:39;;;;;;;123.77;48.70;;;;;;;-1.00;80.38;99714.25;2211517;81;21315;-78
2021/12/12 10:14:40;;;;;;;103.30;43.80;;;;;;;-1.06;80.39;99718.95;2211226;81;20992;-79
2021/12/12 10:17:40;;;;;;;100.83;43.03;;;;;;;-1.12;80.38;99717.23;2211248;81;20901;-79
2021/12/12 10:20:41;;;;;;;102.67;44.07;;;;;;;-1.09;80.47;99723.46;2211625;81;20952;-79
2021/12/12 10:23:43;;;;;;;111.67;45.47;;;;;;;-0.98;80.43;99719.09;2189085;81;20949;-79
2021/12/12 10:26:44;;;;;;;121.43;43.87;;;;;;;-0.97;80.29;99716.64;2211601;81;20933;-80
2021/12/12 10:29:44;;;;;;;119.37;46.23;;;;;;;-0.97;80.22;99718.31;2211436;81;21000;-79
2021/12/12 10:32:45;;;;;;;99.50;39.30;;;;;;;-0.87;80.10;99724.59;2211181;81;21374;-79
2021/12/12 10:35:46;;;;;;;127.50;45.67;;;;;;;-0.84;80.03;99722.27;2211425;81;21043;-79
2021/12/12 10:38:46;;;;;;;108.90;44.03;;;;;;;-0.93;80.24;99713.91;2211413;81;20976;-79
2021/12/12 10:41:47;;;;;;;102.80;40.43;;;;;;;-0.89;80.25;99709.49;2211534;81;20936;-79
2021/12/12 10:44:48;;;;;;;117.80;45.33;;;;;;;-0.80;80.03;99706.33;2211541;81;20944;-79
2021/12/12 10:47:48;;;;;;;120.27;45.07;;;;;;;-0.73;79.90;99712.37;2211554;81;21309;-79
2021/12/12 10:50:49;;;;;;;116.40;45.63;;;;;;;-0.67;79.88;99710.23;2211597;81;20981;-80
2021/12/12 10:53:49;;;;;;;94.63;39.87;;;;;;;-0.61;79.90;99705.04;2211575;81;20889;-80
2021/12/12 10:56:50;;;;;;;100.93;41.00;;;;;;;-0.68;79.36;99703.33;2211473;81;20917;-79
2021/12/12 10:59:51;;;;;;;112.47;46.87;;;;;;;-0.71;79.59;99702.23;2211809;80;21400;-80
2021/12/12 11:02:52;;;;;;;108.20;45.17;;;;;;;-0.71;79.78;99704.80;2212587;81;20909;-79
2021/12/12 11:05:52;;;;;;;122.03;49.37;;;;;;;-0.77;79.79;99703.97;2211772;81;20936;-79
2021/12/12 11:08:53;;;;;;;118.60;47.17;;;;;;;-0.73;80.07;99698.67;2211832;81;20933;-79
2021/12/12 11:11:53;;;;;;;124.47;49.70;;;;;;;-0.76;79.95;99700.62;2212040;81;20933;-79
2021/12/12 11:14:54;;;;;;;119.23;47.10;;;;;;;-0.80;79.95;99696.07;2211608;81;21403;-78
2021/12/12 11:17:54;;;;;;;126.07;49.50;;;;;;;-0.73;80.18;99698.67;2211024;81;21025;-78
2021/12/12 11:20:55;;;;;;;106.00;43.97;;;;;;;-0.74;80.01;99705.47;2211208;81;20983;-79
2021/12/12 11:23:55;;;;;;;114.03;46.17;;;;;;;-0.63;80.14;99700.20;2211546;81;20976;-79
2021/12/12 11:26:56;;;;;;;112.20;47.57;;;;;;;-0.60;79.95;99700.02;2211699;81;21363;-80
2021/12/12 11:29:56;;;;;;;117.23;46.87;;;;;;;-0.59;79.88;99695.38;2210732;81;21039;-79
2021/12/12 11:32:57;;;;;;;103.93;45.67;;;;;;;-0.69;79.75;99686.17;2209647;81;20975;-79
2021/12/12 11:35:57;;;;;;;114.53;47.50;;;;;;;-0.76;79.78;99680.52;2209829;81;21024;-78
2021/12/12 11:38:58;;;;;;;106.23;43.87;;;;;;;-0.78;80.02;99679.52;2209908;81;21359;-79
2021/12/12 11:41:58;;;;;;;115.63;47.30;;;;;;;-0.72;79.92;99681.22;2210450;81;21408;-79
2021/12/12 11:44:59;;;;;;;75.17;34.60;;;;;;;-0.68;79.79;99672.56;2211090;81;20917;-79
2021/12/12 11:48:00;;;;;;;70.67;32.20;;;;;;;-0.59;79.25;99676.55;2211367;81;20992;-79
2021/12/12 11:51:00;;;;;;;72.70;31.03;;;;;;;-0.60;78.67;99683.73;2211365;81;20925;-79
2021/12/12 11:54:01;;;;;;;78.20;33.73;;;;;;;-0.60;78.32;99681.17;2211528;81;20925;-79
2021/12/12 11:57:02;;;;;;;90.00;37.30;;;;;;;-0.58;78.71;99679.60;2211423;81;20940;-79
2021/12/12 12:00:03;;;;;;;81.50;37.07;;;;;;;-0.56;78.74;99676.75;2211242;81;21055;-79
2021/12/12 12:03:04;;;;;;;102.63;39.97;;;;;;;-0.52;78.88;99675.78;2211649;81;21289;-79
2021/12/12 12:06:04;;;;;;;88.30;40.13;;;;;;;-0.51;79.05;99681.80;2211541;81;20932;-80
2021/12/12 12:09:05;;;;;;;101.43;42.67;;;;;;;-0.47;79.08;99679.95;2211816;81;20980;-79
2021/12/12 12:12:06;;;;;;;106.77;43.03;;;;;;;-0.49;78.97;99679.84;2211626;81;21350;-79
2021/12/12 12:15:06;;;;;;;83.27;35.97;;;;;;;-0.51;79.19;99685.66;2211844;81;21059;-79
2021/12/12 12:18:08;;;;;;;92.47;39.37;;;;;;;-0.58;78.78;99689.86;2212256;81;20920;-79
2021/12/12 12:21:12;;;;;;;83.47;37.23;;;;;;;-0.66;79.05;99688.95;2211602;81;20966;-79
2021/12/12 12:24:11;;;;;;;88.80;38.43;;;;;;;-0.65;79.34;99684.31;2211491;80;20952;-79
2021/12/12 12:27:12;;;;;;;92.77;38.27;;;;;;;-0.63;79.32;99688.66;2211596;81;21316;-79
2021/12/12 12:30:13;;;;;;;92.63;38.90;;;;;;;-0.68;79.45;99687.95;2212182;81;21015;-79
2021/12/12 12:33:13;;;;;;;116.10;45.40;;;;;;;-0.58;79.50;99684.73;2211252;81;20941;-79
2021/12/12 12:36:14;;;;;;;101.40;44.27;;;;;;;-0.49;79.65;99679.84;2210882;81;21043;-79
2021/12/12 12:39:15;;;;;;;113.03;46.73;;;;;;;-0.41;79.30;99672.66;2211475;81;21300;-79
2021/12/12 12:42:15;;;;;;;111.23;45.30;;;;;;;-0.36;79.31;99678.60;2211449;81;21238;-79
2021/12/12 12:45:16;;;;;;;97.90;39.43;;;;;;;-0.38;79.14;99681.45;2211029;81;20964;-79
2021/12/12 12:48:16;;;;;;;99.97;41.03;;;;;;;-0.42;79.08;99681.15;2211231;81;20921;-79
2021/12/12 12:51:17;;;;;;;90.07;39.73;;;;;;;-0.47;79.06;99683.80;2211370;81;20937;-79
2021/12/12 12:54:19;;;;;;;88.63;38.10;;;;;;;-0.54;79.00;99684.16;2211259;81;21388;-79
2021/12/12 12:57:19;;;;;;;90.30;41.47;;;;;;;-0.59;79.25;99686.41;2211815;81;20964;-79
2021/12/12 13:00:20;;;;;;;106.67;44.00;;;;;;;-0.57;79.53;99691.64;2211860;81;20992;-79
2021/12/12 13:03:20;;;;;;;94.30;40.30;;;;;;;-0.58;79.52;99692.42;2211330;81;20933;-79
2021/12/12 13:06:21;;;;;;;115.17;45.97;;;;;;;-0.61;79.41;99691.83;2211470;81;20929;-79
2021/12/12 13:09:21;;;;;;;93.13;39.73;;;;;;;-0.59;79.59;99701.80;2211931;81;20960;-79
2021/12/12 13:12:22;;;;;;;94.60;41.33;;;;;;;-0.66;79.40;99700.48;2211402;81;20945;-79
2021/12/12 13:15:23;;;;;;;94.57;40.53;;;;;;;-0.69;79.56;99700.66;2211487;81;20969;-79
2021/12/12 13:18:23;;;;;;;97.03;41.33;;;;;;;-0.76;79.48;99704.86;2211669;81;20909;-79
2021/12/12 13:21:24;;;;;;;101.43;41.90;;;;;;;-0.84;79.67;99701.77;2211187;81;20945;-79
2021/12/12 13:24:24;;;;;;;93.67;41.43;;;;;;;-0.85;79.86;99706.79;2211190;81;20922;-79
2021/12/12 13:27:43;;;;;;;91.67;41.33;;;;;;;-0.87;79.98;99700.23;2211634;81;21340;-79
2021/12/12 13:30:40;;;;;;;76.80;35.40;;;;;;;-0.80;80.12;99706.33;2208790;81;20972;-80
2021/12/12 13:33:32;;;;;;;82.57;37.30;;;;;;;-0.77;79.93;99703.97;2210197;80;20948;-80
2021/12/12 13:36:33;;;;;;;85.00;36.80;;;;;;;-0.83;79.77;99694.97;2211493;81;21431;-80
2021/12/12 13:39:34;;;;;;;78.20;33.83;;;;;;;-0.84;79.87;99702.16;2211664;81;20965;-80
2021/12/12 13:42:34;;;;;;;82.37;36.73;;;;;;;-0.81;79.97;99700.70;2211418;81;20977;-79
2021/12/12 13:45:35;;;;;;;91.27;39.00;;;;;;;-0.78;79.76;99695.78;2211469;81;20964;-80
2021/12/12 13:48:35;;;;;;;95.17;43.37;;;;;;;-0.78;79.79;99697.06;2211280;81;21384;-80
2021/12/12 13:51:38;;;;;;;90.63;41.77;;;;;;;-0.79;79.84;99698.24;2211276;81;21386;-79
2021/12/12 13:54:38;;;;;;;96.97;45.00;;;;;;;-0.77;79.97;99701.41;2211128;81;20980;-80
2021/12/12 13:57:40;;;;;;;88.70;39.10;;;;;;;-0.77;79.80;99706.54;2210864;81;21079;-80